Data for 08/06/2005

Time Sea-Level Adjusted Pressure Absolute Pressure Temperature Relative Humidity Dew Point   
(mb) (inHg) (mb) (inHg) (C) (F) (%) (C) (F)
00:05 1022 30.18 851 25.13 20.5 68.9 33 3.7 38.7
00:10 1022 30.18 851 25.13 20.4 68.6 37 5.5 41.8
00:15 1022 30.18 851 25.13 20 68 35 4 39.3
00:20 1022 30.18 851 25.13 20 68 34 4 39.2
00:25 1022 30.18 851 25.13 19.9 67.8 35 4 39.2
00:30 1022 30.18 851 25.13 19.4 67 37 4.5 40
00:35 1022 30.18 851 25.13 19.3 66.8 36 4.2 39.6
00:40 1022 30.18 851 25.13 19.1 66.5 37 4.2 39.6
00:45 1022 30.18 851 25.13 19.1 66.3 38 4.5 40.1
00:50 1022 30.18 851 25.13 19.2 66.5 37 4.1 39.4
00:55 1022 30.18 851 25.13 19.2 66.5 37 4.2 39.6
01:00 1022 30.18 852 25.16 19 66.3 37 4 39.2
01:05 1022 30.18 852 25.16 19.4 66.8 35 3.5 38.3
01:10 1022 30.18 851 25.13 19.3 66.7 36 3.9 39
01:15 1022 30.18 851 25.13 18.9 66.1 35 3.4 38.2
01:20 1022 30.18 852 25.16 19.1 66.4 34 3.1 37.6
01:25 1022 30.18 852 25.16 19.2 66.5 34 3.1 37.7
01:30 1022 30.18 851 25.13 19.3 66.7 34 3.2 37.8
01:35 1022 30.18 851 25.13 19.3 66.8 34 3.1 37.6
01:40 1022 30.18 851 25.13 19.3 66.7 37 4.3 39.8
01:45 1022 30.18 852 25.16 19.2 66.6 34 3.2 37.8
01:50 1022 30.18 851 25.13 19.4 67 33 2.7 36.9
01:55 1022 30.18 851 25.13 19.4 66.9 34 3.3 37.9
02:00 1022 30.18 851 25.13 18.9 66.1 36 3.5 38.3
02:05 1022 30.18 851 25.13 18.4 65.1 37 3.8 38.8
02:10 1022 30.18 851 25.13 18.2 64.8 40 4.4 39.9
02:15 1022 30.18 851 25.13 18.2 64.8 37 3.3 38
02:20 1022 30.18 851 25.13 18.1 64.6 38 3.6 38.5
02:25 1022 30.18 851 25.13 18 64.4 38 3.8 38.8
02:30 1022 30.18 851 25.13 18 64.5 36 2.8 37
02:35 1022 30.18 851 25.13 18.7 65.6 35 3 37.5
02:40 1022 30.18 852 25.16 18.7 65.7 36 3.4 38.1
02:45 1022 30.18 852 25.16 18.5 65.2 35 3 37.4
02:50 1022 30.18 852 25.16 18.6 65.6 33 2.4 36.3
02:55 1022 30.18 852 25.16 19.1 66.3 32 2.1 35.7
03:00 1022 30.18 852 25.16 19.8 67.6 33 3.2 37.7
03:05 1022 30.18 852 25.16 19.5 67 32 2.5 36.4
03:10 1022 30.18 852 25.16 19.8 67.7 31 2.4 36.3
03:15 1022 30.18 852 25.16 19.8 67.6 32 2.6 36.7
03:20 1022 30.18 852 25.16 19.4 66.9 34 3.2 37.8
03:25 1022 30.18 852 25.16 19.1 66.4 33 2.8 37.1
03:30 1022 30.18 852 25.16 19.1 66.3 35 3.3 38
03:35 1022 30.18 852 25.16 18.9 65.9 34 2.6 36.7
03:40 1023 30.21 852 25.16 19.1 66.4 33 2.6 36.7
03:45 1023 30.21 852 25.16 19.1 66.4 36 4 39.2
03:50 1023 30.21 852 25.16 19.1 66.3 33 2.7 36.8
03:55 1023 30.21 852 25.16 18.8 65.9 36 3.4 38.1
04:00 1023 30.21 852 25.16 18.2 64.7 37 3.3 38
04:05 1023 30.21 852 25.16 18.3 64.9 36 3.1 37.6
04:10 1023 30.21 852 25.16 18 64.3 39 3.8 38.8
04:15 1022 30.18 852 25.16 17.7 63.9 40 4.1 39.3
04:20 1022 30.18 852 25.16 17.4 63.2 40 3.7 38.6
04:25 1023 30.21 852 25.16 17.9 64.3 35 2.4 36.4
04:30 1023 30.21 852 25.16 18.4 65.2 35 2.7 36.8
04:35 1023 30.21 852 25.16 18.3 65 35 2.8 37.1
04:40 1023 30.21 852 25.16 18.3 64.9 34 2.3 36.2
04:45 1023 30.21 852 25.16 18.6 65.4 34 2.7 36.8
04:50 1023 30.21 852 25.16 18.1 64.6 39 4 39.2
04:55 1023 30.21 852 25.16 17.5 63.6 40 3.9 39.1
05:00 1023 30.21 852 25.16 17.3 63.2 41 4 39.1
05:05 1023 30.21 852 25.16 17.3 63.1 41 3.9 39.1
05:10 1023 30.21 852 25.16 17 62.6 41 3.7 38.6
05:15 1023 30.21 852 25.16 17.2 62.9 42 4.3 39.7
05:20 1023 30.21 852 25.16 17.3 63.2 39 3.4 38.1
05:25 1023 30.21 852 25.16 17.4 63.3 39 3.3 37.9
05:30 1023 30.21 852 25.16 17.8 64.1 42 4.8 40.6
05:35 1023 30.21 852 25.16 17.9 64.3 35 2.6 36.6
05:40 1023 30.21 852 25.16 17.8 64.1 40 4 39.3
05:45 1023 30.21 852 25.16 16.9 62.4 44 4.6 40.2
05:50 1023 30.21 852 25.16 16.2 61.2 44 4.1 39.4
05:55 1023 30.21 852 25.16 16.7 62 41 3.5 38.2
06:00 1023 30.21 852 25.16 17 62.6 41 3.9 39.1
06:05 1023 30.21 852 25.16 16.8 62.2 43 4.2 39.5
06:10 1023 30.21 852 25.16 16.9 62.3 41 3.7 38.7
06:15 1023 30.21 852 25.16 16.8 62.3 41 3.7 38.6
06:20 1023 30.21 852 25.16 16.7 62.1 41 3.5 38.4
06:25 1023 30.21 852 25.16 16.8 62.2 41 3.5 38.3
06:30 1023 30.21 852 25.16 17 62.5 40 3.3 38
06:35 1023 30.21 852 25.16 17.2 62.9 40 3.7 38.6
06:40 1023 30.21 852 25.16 17 62.7 40 3.5 38.2
06:45 1023 30.21 852 25.16 17 62.6 44 4.9 40.9
06:50 1023 30.21 852 25.16 17.1 62.8 40 3.7 38.6
06:55 1023 30.21 852 25.16 17 62.6 41 3.7 38.6
07:00 1023 30.21 852 25.16 17 62.5 41 3.9 39
07:05 1023 30.21 852 25.16 16.9 62.4 41 3.8 38.9
07:10 1023 30.21 852 25.16 16.8 62.3 42 4 39.2
07:15 1023 30.21 852 25.16 16.7 62 43 4.3 39.7
07:20 1023 30.21 852 25.16 16.6 61.8 42 3.8 38.8
07:25 1023 30.21 852 25.16 16.7 62.1 43 4.3 39.7
07:30 1023 30.21 852 25.16 17 62.5 41 3.9 39
07:35 1023 30.21 852 25.16 17.3 63.1 43 4.6 40.3
07:40 1023 30.21 852 25.16 17.1 62.7 43 4.4 40
07:45 1023 30.21 852 25.16 17.4 63.3 41 4.2 39.6
07:50 1023 30.21 852 25.16 17.4 63.3 44 5.3 41.5
07:55 1023 30.21 852 25.16 17 62.6 46 5.2 41.4
08:00 1023 30.21 852 25.16 17.2 62.9 45 5.4 41.7
08:05 1023 30.21 852 25.16 17.1 62.8 47 5.9 42.6
08:10 1023 30.21 852 25.16 17.3 63.2 46 5.8 42.5
08:15 1023 30.21 852 25.16 17.9 64.2 41 4.6 40.3
08:20 1023 30.21 852 25.16 18.1 64.5 46 6.5 43.6
08:25 1023 30.21 853 25.19 18.3 65 38 3.9 39
08:30 1023 30.21 852 25.16 19.1 66.4 38 4.5 40
08:35 1023 30.21 852 25.16 19.5 67.1 37 4.4 40
08:40 1023 30.21 852 25.16 19.6 67.3 36 4.2 39.6
08:45 1023 30.21 852 25.16 19.5 67.2 39 5.3 41.5
08:50 1023 30.21 852 25.16 19.4 66.8 41 5.9 42.6
08:55 1023 30.21 853 25.19 19.5 67.2 40 5.8 42.5
09:00 1023 30.21 853 25.19 20.6 69 41 6.9 44.4
09:05 1023 30.21 852 25.16 20.7 69.3 44 8.3 46.9
09:10 1023 30.21 852 25.16 19.9 67.8 46 8.2 46.8
09:15 1023 30.21 852 25.16 19.9 67.7 46 8.1 46.5
09:20 1023 30.21 852 25.16 20.1 68.2 44 7.8 46
09:25 1023 30.21 852 25.16 20.3 68.5 43 7.5 45.4
09:30 1023 30.21 852 25.16 21.2 70.2 34 5.1 41.2
09:35 1023 30.21 852 25.16 22.4 72.2 32 5.2 41.4
09:40 1023 30.21 852 25.16 22.7 72.9 33 5.8 42.4
09:45 1023 30.21 852 25.16 23.1 73.6 33 6 42.8
09:50 1023 30.21 852 25.16 23.7 74.7 32 6.1 42.9
09:55 1023 30.21 852 25.16 24.2 75.5 30 5.7 42.2
10:00 1023 30.21 852 25.16 24.4 75.8 31 6.4 43.5
10:05 1023 30.21 852 25.16 24.7 76.5 30 6 42.8
10:10 1023 30.21 852 25.16 24.3 75.7 31 6.1 42.9
10:15 1023 30.21 852 25.16 24.3 75.8 29 5.3 41.6
10:20 1023 30.21 852 25.16 25 77 28 5.6 42.1
10:25 1023 30.21 852 25.16 25.4 77.8 28 5.6 42.1
10:30 1023 30.21 852 25.16 25.8 78.5 26 5.2 41.4
10:35 1023 30.21 852 25.16 26.2 79.1 25 5.1 41.2
10:40 1023 30.21 852 25.16 26.8 80.3 25 5.3 41.5
10:45 1023 30.21 852 25.16 26.9 80.4 24 5.1 41.1
10:50 1023 30.21 852 25.16 26.8 80.2 26 5.8 42.5
10:55 1023 30.21 852 25.16 27.3 81.1 23 4.8 40.6
11:00 1023 30.21 852 25.16 27.6 81.7 23 4.8 40.7
11:05 1023 30.21 852 25.16 27.6 81.6 26 6.6 43.9
11:10 1023 30.21 852 25.16 27.6 81.6 25 5.9 42.6
11:15 1023 30.21 852 25.16 28.2 82.8 23 5.5 41.9
11:20 1023 30.21 852 25.16 28 82.3 24 5.8 42.4
11:25 1023 30.21 852 25.16 27.9 82.2 23 5.2 41.4
11:30 1023 30.21 852 25.16 27.3 81.1 24 5.4 41.7
11:35 1023 30.21 852 25.16 28.2 82.8 24 6.2 43.2
11:40 1023 30.21 852 25.16 28.9 83.9 22 5.5 41.9
11:45 1023 30.21 852 25.16 29.1 84.4 23 6.3 43.3
11:50 1023 30.21 852 25.16 29 84.3 22 5.8 42.4
11:55 1023 30.21 852 25.16 29.2 84.6 23 6.3 43.3
12:00 1023 30.21 852 25.16 29.1 84.3 23 5.9 42.6
12:05 1023 30.21 852 25.16 29.2 84.5 22 5.6 42.1
12:10 1022 30.18 852 25.16 29.2 84.6 22 5.9 42.7
12:15 1022 30.18 852 25.16 29 84.2 23 6.1 43
12:20 1022 30.18 852 25.16 29.3 84.8 22 5.6 42.1
12:25 1022 30.18 852 25.16 30.1 86.1 21 6 42.8
12:30 1022 30.18 852 25.16 30 86.1 22 6.4 43.5
12:35 1022 30.18 852 25.16 29.6 85.3 21 5.1 41.2
12:40 1022 30.18 851 25.13 30.5 86.9 20 5 41.1
12:45 1022 30.18 851 25.13 31.1 87.9 20 6.1 42.9
12:50 1022 30.18 851 25.13 30.9 87.7 20 5.7 42.2
12:55 1022 30.18 851 25.13 30.5 86.9 20 5.5 41.9
13:00 1022 30.18 851 25.13 30.6 87.1 20 5.5 42
13:05 1022 30.18 851 25.13 31.4 88.5 19 5.4 41.8
13:10 1022 30.18 851 25.13 31.3 88.3 17 4.1 39.4
13:15 1022 30.18 851 25.13 31.5 88.6 18 4.5 40.1
13:20 1022 30.18 851 25.13 30.6 87.1 19 4.7 40.5
13:25 1022 30.18 851 25.13 30.7 87.2 19 5 40.9
13:30 1022 30.18 851 25.13 31.9 89.4 20 6.7 44
13:35 1022 30.18 851 25.13 32.3 90.2 18 5.3 41.6
13:40 1022 30.18 851 25.13 31.2 88.2 19 5.4 41.7
13:45 1022 30.18 851 25.13 30.4 86.7 20 5.2 41.4
13:50 1022 30.18 851 25.13 31.7 89.1 16 2.9 37.2
13:55 1022 30.18 851 25.13 32.7 90.8 15 3.6 38.4
14:00 1021 30.15 851 25.13 32.8 91 16 3.9 39.1
14:05 1021 30.15 851 25.13 32.6 90.7 16 4.1 39.4
14:10 1021 30.15 851 25.13 33.1 91.6 16 4.3 39.7
14:15 1021 30.15 851 25.13 33.1 91.6 16 4.3 39.8
14:20 1021 30.15 850 25.1 33.6 92.4 14 3.1 37.6
14:25 1021 30.15 850 25.1 33.4 92.1 15 3.9 39.1
14:30 1021 30.15 850 25.1 33.6 92.4 13 2.3 36.2
14:35 1021 30.15 850 25.1 33 91.4 14 1.9 35.5
14:40 1021 30.15 850 25.1 33.2 91.7 14 2.2 35.9
14:45 1021 30.15 850 25.1 33.3 92 14 2.7 36.9
14:50 1021 30.15 850 25.1 33.1 91.6 13 1.8 35.3
14:55 1021 30.15 850 25.1 33.5 92.4 13 1.9 35.3
15:00 1021 30.15 850 25.1 33.7 92.6 13 1.7 35.1
15:05 1021 30.15 850 25.1 33.1 91.5 13 1.8 35.3
15:10 1021 30.15 850 25.1 32.9 91.1 14 2 35.6
15:15 1021 30.15 850 25.1 33.2 91.7 13 2 35.6
15:20 1021 30.15 850 25.1 34.3 93.8 13 2.1 35.8
15:25 1021 30.15 850 25.1 34.8 94.6 13 2.3 36.1
15:30 1021 30.15 850 25.1 34.4 93.9 13 2 35.6
15:35 1020 30.12 850 25.1 34.2 93.5 12 1.4 34.6
15:40 1020 30.12 850 25.1 34.2 93.5 12 1.6 34.9
15:45 1020 30.12 850 25.1 33.2 91.7 13 1.3 34.3
15:50 1020 30.12 849 25.07 32.8 91.1 13 1.6 34.8
15:55 1020 30.12 849 25.07 33.6 92.5 13 1.4 34.5
16:00 1020 30.12 849 25.07 34 93.2 12 1.5 34.6
16:05 1020 30.12 849 25.07 34.3 93.8 12 1.4 34.4
16:10 1020 30.12 849 25.07 34.5 94.1 13 2.4 36.3
16:15 1020 30.12 849 25.07 35.1 95.2 13 2.6 36.7
16:20 1020 30.12 849 25.07 34.4 93.9 13 2.4 36.4
16:25 1020 30.12 849 25.07 34 93.2 13 1.9 35.3
16:30 1020 30.12 849 25.07 34.2 93.6 13 2 35.5
16:35 1020 30.12 849 25.07 34.4 93.9 13 2.4 36.3
16:40 1020 30.12 849 25.07 33.9 92.9 13 2.1 35.7
16:45 1020 30.12 849 25.07 33.1 91.5 14 2 35.7
16:50 1020 30.12 849 25.07 33.2 91.8 13 1.7 35
16:55 1020 30.12 849 25.07 33.8 92.9 13 2 35.6
17:00 1020 30.12 849 25.07 33.6 92.5 13 2.3 36.1
17:05 1020 30.12 849 25.07 33.3 91.9 13 1.9 35.4
17:10 1020 30.12 849 25.07 33.4 92.1 13 1.8 35.3
17:15 1020 30.12 849 25.07 33.6 92.4 13 1.6 34.9
17:20 1020 30.12 849 25.07 33.2 91.7 14 2.2 36
17:25 1019 30.09 849 25.07 32.7 90.9 14 1.8 35.3
17:30 1019 30.09 849 25.07 32.9 91.2 13 1.7 35
17:35 1019 30.09 848 25.04 33.2 91.7 14 2.6 36.7
17:40 1019 30.09 848 25.04 33.2 91.8 13 1.5 34.7
17:45 1019 30.09 848 25.04 33.2 91.7 13 1.2 34.2
17:50 1019 30.09 848 25.04 33.9 93 13 1.9 35.3
17:55 1019 30.09 848 25.04 34.2 93.6 13 2.6 36.7
18:00 1019 30.09 848 25.04 34 93.1 13 1.6 34.9
18:05 1019 30.09 848 25.04 33.2 91.7 14 2.5 36.6
18:10 1019 30.09 848 25.04 32.3 90.1 14 2.3 36.1
18:15 1019 30.09 848 25.04 32.2 89.9 14 1.7 35.1
18:20 1019 30.09 848 25.04 32.4 90.3 15 2.4 36.4
18:25 1019 30.09 848 25.04 32 89.7 14 2 35.6
18:30 1019 30.09 848 25.04 31.8 89.3 15 2.5 36.5
18:35 1019 30.09 848 25.04 31.8 89.2 16 3.5 38.4
18:40 1019 30.09 848 25.04 31.6 89 15 2.3 36.2
18:45 1019 30.09 848 25.04 31.4 88.5 17 3.5 38.3
18:50 1019 30.09 848 25.04 31.2 88.2 20 6.1 43
18:55 1019 30.09 848 25.04 31 87.8 20 5.9 42.6
19:00 1019 30.09 848 25.04 30.8 87.4 19 4.7 40.5
19:05 1019 30.09 848 25.04 30.7 87.2 21 6.3 43.4
19:10 1019 30.09 848 25.04 29.9 85.8 25 8.2 46.8
19:15 1019 30.09 848 25.04 29.4 84.9 25 7.9 46.1
19:20 1019 30.09 849 25.07 29.2 84.5 25 7.5 45.5
19:25 1020 30.12 849 25.07 29.1 84.4 27 8.6 47.5
19:30 1020 30.12 849 25.07 28.5 83.4 26 7.5 45.6
19:35 1020 30.12 849 25.07 27.7 81.9 24 5.4 41.6
19:40 1020 30.12 849 25.07 27.4 81.4 21 3.7 38.6
19:45 1020 30.12 849 25.07 27.6 81.6 20 3 37.4
19:50 1020 30.12 849 25.07 27.8 82 19 2.4 36.3
19:55 1020 30.12 849 25.07 28.3 82.9 18 1.7 35.1
20:00 1020 30.12 849 25.07 28.6 83.4 15 -0.2 31.7
20:05 1020 30.12 849 25.07 28.7 83.7 15 0.1 32.2
20:10 1020 30.12 849 25.07 28.6 83.4 16 0.2 32.4
20:15 1021 30.15 850 25.1 28.5 83.3 16 0.8 33.4
20:20 1021 30.15 850 25.1 27.9 82.1 21 4 39.1
20:25 1021 30.15 850 25.1 26.8 80.2 24 5 41
20:30 1021 30.15 850 25.1 26.1 79.1 26 5.4 41.7
20:35 1022 30.18 851 25.13 25.8 78.5 26 5.1 41.2
20:40 1022 30.18 851 25.13 25.7 78.2 26 5.2 41.4
20:45 1022 30.18 851 25.13 25.5 77.9 27 5.3 41.5
20:50 1022 30.18 851 25.13 25.7 78.2 25 4.3 39.8
20:55 1022 30.18 851 25.13 25.9 78.6 26 5.1 41.1
21:00 1022 30.18 852 25.16 25.6 78 27 5.5 41.9
21:05 1022 30.18 852 25.16 25.1 77.2 29 5.8 42.5
21:10 1022 30.18 852 25.16 24.7 76.4 30 6.1 42.9
21:15 1023 30.21 852 25.16 24.5 76 30 6 42.7
21:20 1023 30.21 852 25.16 24.4 75.9 30 5.9 42.6
21:25 1023 30.21 852 25.16 24.3 75.8 30 5.9 42.7
21:30 1023 30.21 852 25.16 24.5 76.1 29 5.3 41.6
21:35 1023 30.21 852 25.16 24.6 76.3 31 6.5 43.7
21:40 1023 30.21 852 25.16 23.7 74.6 33 6.5 43.7
21:45 1023 30.21 852 25.16 23.5 74.4 32 6.1 43
21:50 1023 30.21 852 25.16 23.6 74.5 32 6.3 43.3
21:55 1023 30.21 852 25.16 23.5 74.4 33 6.4 43.5
22:00 1023 30.21 852 25.16 23.5 74.2 33 6.6 43.9
22:05 1023 30.21 852 25.16 23.3 74 34 6.8 44.3
22:10 1023 30.21 852 25.16 23.1 73.7 34 6.8 44.2
22:15 1023 30.21 852 25.16 23.1 73.6 34 6.7 44
22:20 1023 30.21 852 25.16 23.1 73.7 33 6 42.8
22:25 1022 30.18 852 25.16 23.4 74 33 6.4 43.6
22:30 1022 30.18 851 25.13 23.1 73.6 33 6.3 43.3
22:35 1022 30.18 851 25.13 23.1 73.6 33 6.2 43.1
22:40 1022 30.18 851 25.13 23.2 73.7 32 5.8 42.5
22:45 1022 30.18 851 25.13 23.5 74.2 31 5.7 42.3
22:50 1022 30.18 851 25.13 23.4 74.2 32 6 42.9
22:55 1022 30.18 851 25.13 23.3 73.9 32 5.8 42.5
23:00 1022 30.18 851 25.13 23.2 73.7 32 6 42.8
23:05 1021 30.15 851 25.13 22.9 73.2 34 6.2 43.2
23:10 1021 30.15 851 25.13 22.7 72.9 34 6.1 42.9
23:15 1021 30.15 851 25.13 22.8 73.1 32 5.5 41.9
23:20 1021 30.15 851 25.13 23.2 73.8 31 5.3 41.5
23:25 1021 30.15 851 25.13 23.5 74.2 31 5.6 42
23:30 1021 30.15 851 25.13 23.1 73.6 32 5.5 42
23:35 1021 30.15 851 25.13 23.2 73.8 31 5.5 41.9
23:40 1021 30.15 851 25.13 23.1 73.6 32 5.9 42.6
23:45 1021 30.15 851 25.13 23.1 73.6 32 5.6 42
23:50 1021 30.15 851 25.13 23.1 73.6 32 5.8 42.5
23:55 1021 30.15 850 25.1 23 73.4 32 5.7 42.3
24:00 1021 30.15 850 25.1 23 73.4 32 5.5 41.9